Time;durP1;ratioP1;P1;durP2;ratioP2;P2;SDS_P1;SDS_P2;PMS_P1;PMS_P2;Temp;Humidity;BMP_temperature;BMP_pressure;BME280_temperature;BME280_humidity;BME280_pressure;Samples;Min_cycle;Max_cycle;Signal;HPM_P1;HPM_P2
2021/10/21 00:00:26;;;;;;;16.37;12.82;;;;;;;9.99;65.93;100306.48;1771357;81;21482;-68
2021/10/21 00:02:52;;;;;;;18.77;12.82;;;;;;;9.97;66.03;100308.41;1771579;81;21776;-67
2021/10/21 00:05:19;;;;;;;15.70;13.00;;;;;;;9.94;66.16;100301.58;1781455;79;20944;-68
2021/10/21 00:07:45;;;;;;;18.27;14.95;;;;;;;9.92;66.22;100314.50;1803057;79;20968;-68
2021/10/21 00:10:12;;;;;;;17.50;14.35;;;;;;;9.89;66.30;100309.48;1787713;79;21043;-68
2021/10/21 00:12:39;;;;;;;17.73;14.07;;;;;;;9.88;66.41;100310.44;1771366;81;20952;-68
2021/10/21 00:15:07;;;;;;;16.93;13.80;;;;;;;9.85;66.55;100308.05;1771283;81;22791;-68
2021/10/21 00:17:34;;;;;;;17.10;14.38;;;;;;;9.84;66.76;100293.98;1771490;81;20995;-68
2021/10/21 00:20:00;;;;;;;17.10;13.25;;;;;;;9.84;66.91;100297.11;1771380;81;21146;-68
2021/10/21 00:22:26;;;;;;;19.27;14.58;;;;;;;9.84;67.09;100292.67;1771423;80;20972;-68
2021/10/21 00:24:53;;;;;;;20.30;16.25;;;;;;;9.87;67.23;100291.62;1771449;81;21498;-68
2021/10/21 00:27:19;;;;;;;17.12;14.43;;;;;;;9.88;67.26;100296.77;1772744;79;22809;-68
2021/10/21 00:29:46;;;;;;;18.42;14.65;;;;;;;9.88;67.27;100292.81;1771206;81;20956;-68
2021/10/21 00:32:13;;;;;;;18.15;14.68;;;;;;;9.87;67.38;100294.25;1771535;81;21047;-68
2021/10/21 00:34:39;;;;;;;19.57;14.35;;;;;;;9.84;67.43;100287.39;1771256;81;21067;-68
2021/10/21 00:37:06;;;;;;;18.62;15.28;;;;;;;9.84;67.56;100290.52;1799066;79;20987;-68
2021/10/21 00:39:33;;;;;;;18.98;15.38;;;;;;;9.81;67.81;100281.05;1803000;79;21816;-68
2021/10/21 00:41:59;;;;;;;22.17;14.93;;;;;;;9.82;67.88;100281.89;1803186;79;20949;-67
2021/10/21 00:44:26;;;;;;;19.32;14.80;;;;;;;9.79;67.90;100276.86;1785213;79;21033;-68
2021/10/21 00:46:52;;;;;;;21.12;17.82;;;;;;;9.77;68.10;100278.78;1771593;81;21044;-68
2021/10/21 00:49:19;;;;;;;20.92;15.83;;;;;;;9.75;68.13;100271.83;1771320;81;21426;-68
2021/10/21 00:51:46;;;;;;;19.27;15.40;;;;;;;9.71;68.29;100266.41;1771297;81;22619;-69
2021/10/21 00:54:12;;;;;;;19.07;15.23;;;;;;;9.67;68.55;100265.47;1771287;79;21079;-67
2021/10/21 00:56:39;;;;;;;19.07;15.63;;;;;;;9.64;68.62;100263.05;1771298;80;20988;-68
2021/10/21 00:59:07;;;;;;;20.05;16.23;;;;;;;9.59;68.87;100260.78;1771248;81;21032;-68
2021/10/21 01:01:36;;;;;;;19.27;15.93;;;;;;;9.57;68.97;100256.11;1750966;80;21045;-68
2021/10/21 01:04:03;;;;;;;25.92;17.23;;;;;;;9.54;69.07;100255.00;1771802;80;22321;-68
2021/10/21 01:06:29;;;;;;;20.52;15.95;;;;;;;9.51;69.17;100249.14;1774450;80;20953;-69
2021/10/21 01:08:56;;;;;;;20.12;16.52;;;;;;;9.48;69.42;100252.86;1774825;80;21008;-68
2021/10/21 01:11:22;;;;;;;19.87;16.52;;;;;;;9.44;69.60;100244.80;1794514;79;21070;-68
2021/10/21 01:13:49;;;;;;;19.67;16.45;;;;;;;9.42;69.75;100240.13;1771286;80;20956;-68
2021/10/21 01:16:16;;;;;;;21.77;17.55;;;;;;;9.39;69.94;100243.02;1771524;80;21423;-68
2021/10/21 01:18:42;;;;;;;20.35;17.12;;;;;;;9.39;69.94;100248.29;1792422;79;21417;-68
2021/10/21 01:21:09;;;;;;;21.42;17.52;;;;;;;9.38;70.12;100253.20;1803361;78;20936;-68
2021/10/21 01:23:36;;;;;;;22.95;17.80;;;;;;;9.35;70.41;100243.71;1802718;78;20972;-68
2021/10/21 01:26:10;;;;;;;23.98;17.92;;;;;;;9.32;70.48;100241.31;1803033;79;20976;-67
2021/10/21 01:28:38;;;;;;;21.02;16.82;;;;;;;9.30;70.63;100237.13;1803005;79;21839;-68
2021/10/21 01:31:05;;;;;;;21.50;17.05;;;;;;;9.28;70.79;100238.56;1802864;79;20988;-68
2021/10/21 01:33:33;;;;;;;21.37;17.75;;;;;;;9.26;70.89;100236.50;1803175;79;21035;-68
2021/10/21 01:36:00;;;;;;;24.12;18.62;;;;;;;9.24;71.05;100242.38;1802060;79;20961;-68
2021/10/21 01:38:26;;;;;;;20.12;16.93;;;;;;;9.22;71.28;100231.12;1803148;79;20988;-67
2021/10/21 01:40:53;;;;;;;24.35;19.35;;;;;;;9.22;71.38;100233.75;1802882;79;22217;-67
2021/10/21 01:43:19;;;;;;;22.07;18.15;;;;;;;9.20;71.62;100236.15;1781059;79;21004;-68
2021/10/21 01:45:46;;;;;;;26.37;18.50;;;;;;;9.21;71.84;100233.87;1798885;79;20989;-67
2021/10/21 01:48:12;;;;;;;24.15;19.73;;;;;;;9.20;71.94;100233.52;1753527;81;21045;-68
2021/10/21 01:50:38;;;;;;;21.20;18.70;;;;;;;9.19;72.06;100223.45;1760991;81;20946;-68
2021/10/21 01:53:05;;;;;;;23.55;18.10;;;;;;;9.17;72.20;100223.58;1796348;78;22511;-68
2021/10/21 01:55:31;;;;;;;21.82;18.23;;;;;;;9.16;72.25;100219.23;1780598;79;21375;-68
2021/10/21 01:57:57;;;;;;;26.50;19.52;;;;;;;9.14;72.33;100214.56;1803252;79;21509;-68
2021/10/21 02:00:24;;;;;;;26.37;19.85;;;;;;;9.12;72.39;100213.84;1802930;79;20980;-69
2021/10/21 02:02:50;;;;;;;25.75;20.15;;;;;;;9.10;72.56;100208.34;1802964;79;21008;-68
2021/10/21 02:05:18;;;;;;;24.12;19.77;;;;;;;9.08;72.69;100215.05;1802967;79;21697;-68
2021/10/21 02:07:45;;;;;;;27.52;20.45;;;;;;;9.07;72.91;100223.04;1777320;79;21451;-68
2021/10/21 02:10:16;;;;;;;28.67;19.90;;;;;;;9.05;73.12;100225.80;1775789;79;21031;-68
2021/10/21 02:12:46;;;;;;;26.93;20.88;;;;;;;9.06;73.22;100222.69;1770487;80;21055;-69
2021/10/21 02:15:12;;;;;;;25.70;20.40;;;;;;;9.03;73.36;100211.91;1774468;80;21079;-68
2021/10/21 02:17:39;;;;;;;27.73;19.98;;;;;;;9.02;73.46;100208.08;1772171;80;21797;-68
2021/10/21 02:20:08;;;;;;;27.40;20.97;;;;;;;9.00;73.60;100209.52;1771009;81;20992;-68
2021/10/21 02:22:34;;;;;;;25.82;21.25;;;;;;;8.99;73.75;100211.79;1779257;79;21473;-67
2021/10/21 02:25:01;;;;;;;26.60;21.50;;;;;;;8.99;73.82;100218.38;1805991;78;21411;-69
2021/10/21 02:27:28;;;;;;;24.10;20.70;;;;;;;8.98;73.89;100216.70;1775217;79;21426;-69
2021/10/21 02:29:54;;;;;;;24.92;20.32;;;;;;;8.97;73.98;100212.36;1774341;80;22231;-69
2021/10/21 02:32:21;;;;;;;25.08;20.70;;;;;;;8.95;74.15;100215.59;1773995;81;20933;-69
2021/10/21 02:34:47;;;;;;;28.98;20.65;;;;;;;8.94;74.16;100213.91;1774214;80;21003;-69
2021/10/21 02:37:14;;;;;;;25.05;20.40;;;;;;;8.94;74.27;100206.49;1780342;79;20981;-69
2021/10/21 02:39:40;;;;;;;27.13;20.48;;;;;;;8.91;74.42;100204.09;1806006;79;21378;-68
2021/10/21 02:42:06;;;;;;;26.07;19.85;;;;;;;8.89;74.54;100200.27;1804863;79;22747;-68
2021/10/21 02:44:34;;;;;;;26.12;20.40;;;;;;;8.87;74.66;100202.16;1773640;81;20995;-67
2021/10/21 02:47:00;;;;;;;24.60;20.85;;;;;;;8.86;74.71;100203.11;1774520;80;20948;-67
2021/10/21 02:49:27;;;;;;;26.60;20.62;;;;;;;8.85;74.85;100202.75;1805475;79;20941;-68
2021/10/21 02:51:53;;;;;;;25.32;20.35;;;;;;;8.84;75.04;100199.76;1805707;79;21055;-68
2021/10/21 02:54:19;;;;;;;25.20;21.12;;;;;;;8.82;75.21;100201.20;1805854;79;22736;-68
2021/10/21 02:56:46;;;;;;;28.73;20.75;;;;;;;8.84;75.41;100198.44;1804797;79;21080;-69
2021/10/21 02:59:13;;;;;;;27.37;21.05;;;;;;;8.81;75.49;100191.62;1784036;79;21004;-68
2021/10/21 03:01:40;;;;;;;25.23;19.65;;;;;;;8.81;75.50;100186.83;1796269;78;21020;-68
2021/10/21 03:04:06;;;;;;;27.32;21.00;;;;;;;8.80;75.60;100180.73;1794912;79;21039;-68
2021/10/21 03:06:34;;;;;;;26.05;19.55;;;;;;;8.79;75.75;100177.73;1777829;79;21042;-68
2021/10/21 03:09:00;;;;;;;23.52;20.25;;;;;;;8.79;75.82;100171.63;1784379;79;20953;-67
2021/10/21 03:11:27;;;;;;;28.52;20.52;;;;;;;8.77;75.87;100162.50;1777055;79;21063;-68
2021/10/21 03:13:53;;;;;;;26.57;20.60;;;;;;;8.76;76.00;100156.88;1777900;79;21478;-67
2021/10/21 03:16:21;;;;;;;25.20;20.45;;;;;;;8.76;76.23;100166.57;1775614;79;21789;-68
2021/10/21 03:18:49;;;;;;;27.25;21.45;;;;;;;8.75;76.24;100153.88;1774181;80;22214;-69
2021/10/21 03:21:15;;;;;;;24.45;20.23;;;;;;;8.75;76.32;100153.05;1774592;80;21146;-68
2021/10/21 03:23:42;;;;;;;27.17;20.43;;;;;;;8.74;76.40;100154.84;1771021;79;21024;-67
2021/10/21 03:26:08;;;;;;;27.17;21.25;;;;;;;8.75;76.42;100153.05;1768669;79;20992;-68
2021/10/21 03:28:35;;;;;;;25.20;19.92;;;;;;;8.74;76.55;100153.52;1777646;79;21012;-68
2021/10/21 03:31:02;;;;;;;24.60;19.73;;;;;;;8.74;76.63;100148.73;1771888;79;21785;-68
2021/10/21 03:33:28;;;;;;;26.27;20.32;;;;;;;8.74;76.68;100147.42;1758311;79;20985;-69
2021/10/21 03:35:55;;;;;;;26.17;20.32;;;;;;;8.72;76.81;100145.39;1786517;79;21044;-68
2021/10/21 03:38:22;;;;;;;26.23;21.07;;;;;;;8.71;76.85;100139.77;1796892;79;21075;-68
2021/10/21 03:40:48;;;;;;;26.10;20.72;;;;;;;8.70;76.94;100145.98;1750990;79;20920;-69
2021/10/21 03:43:15;;;;;;;29.07;21.15;;;;;;;8.69;77.06;100140.36;1766678;79;21776;-68
2021/10/21 03:45:43;;;;;;;28.85;21.85;;;;;;;8.68;77.13;100131.59;1777867;79;21055;-68
2021/10/21 03:48:09;;;;;;;25.60;20.95;;;;;;;8.68;77.22;100132.91;1795315;79;20993;-67
2021/10/21 03:50:36;;;;;;;26.40;20.23;;;;;;;8.68;77.26;100133.39;1784314;79;21008;-68
2021/10/21 03:53:03;;;;;;;27.30;20.77;;;;;;;8.67;77.25;100125.97;1768444;79;21051;-69
2021/10/21 03:55:29;;;;;;;25.55;20.32;;;;;;;8.66;77.38;100128.24;1776521;79;22473;-70
2021/10/21 03:57:57;;;;;;;25.80;20.30;;;;;;;8.66;77.42;100135.30;1776002;78;20984;-69
2021/10/21 04:00:24;;;;;;;23.73;19.85;;;;;;;8.66;77.48;100135.30;1773845;79;20997;-70
2021/10/21 04:02:50;;;;;;;27.50;20.05;;;;;;;8.65;77.51;100129.68;1759625;81;21529;-69
2021/10/21 04:24:31;;;;;;;27.45;21.00;;;;;;;8.73;78.18;100107.56;1872140;75;22701;-68
2021/10/21 04:26:58;;;;;;;25.32;20.70;;;;;;;8.70;77.98;100117.02;1827892;77;21071;-70
2021/10/21 04:29:24;;;;;;;24.72;20.52;;;;;;;8.65;77.94;100107.30;1833411;77;21718;-67
2021/10/21 04:31:50;;;;;;;27.00;20.77;;;;;;;8.62;77.92;100108.37;1845217;75;20936;-67
2021/10/21 04:34:18;;;;;;;23.57;20.20;;;;;;;8.60;77.94;100105.03;1854892;76;20997;-68
2021/10/21 04:36:44;;;;;;;27.22;20.48;;;;;;;8.57;77.98;100100.81;1853251;77;21043;-69
2021/10/21 04:39:11;;;;;;;25.35;20.37;;;;;;;8.56;78.02;100110.98;1849527;75;20984;-69
2021/10/21 04:41:37;;;;;;;23.38;19.98;;;;;;;8.56;78.09;100114.09;1841434;75;21541;-68
2021/10/21 04:44:05;;;;;;;27.37;20.43;;;;;;;8.56;78.14;100114.93;1844150;76;21044;-69
2021/10/21 04:46:31;;;;;;;27.25;20.80;;;;;;;8.58;78.27;100113.02;1843937;77;20960;-69
2021/10/21 04:48:57;;;;;;;24.23;20.27;;;;;;;8.59;78.27;100112.09;1826243;78;21019;-69
2021/10/21 04:51:24;;;;;;;25.82;20.10;;;;;;;8.62;78.22;100108.86;1849913;75;21430;-68
2021/10/21 04:53:50;;;;;;;26.00;20.45;;;;;;;8.61;78.20;100106.70;1852461;75;21832;-69
2021/10/21 04:56:17;;;;;;;23.73;19.77;;;;;;;8.64;78.25;100105.63;1833929;75;21077;-69
2021/10/21 04:58:43;;;;;;;25.70;20.15;;;;;;;8.65;78.28;100104.67;1844657;77;20926;-69
2021/10/21 05:01:10;;;;;;;23.70;20.00;;;;;;;8.66;78.33;100113.77;1850253;77;20992;-69
2021/10/21 05:03:36;;;;;;;26.68;20.62;;;;;;;8.67;78.30;100103.59;1846544;75;20996;-69
2021/10/21 05:06:03;;;;;;;23.07;20.52;;;;;;;8.69;78.25;100099.07;1773572;80;21881;-69
2021/10/21 05:08:30;;;;;;;25.23;19.80;;;;;;;8.70;78.25;100100.74;1801412;79;21023;-69
2021/10/21 05:10:57;;;;;;;27.42;19.95;;;;;;;8.71;78.27;100098.47;1783748;80;21003;-69
2021/10/21 05:13:24;;;;;;;24.10;20.97;;;;;;;8.71;78.23;100095.84;1818093;79;21055;-69
2021/10/21 05:15:52;;;;;;;26.05;20.40;;;;;;;8.73;78.24;100091.28;1818251;79;20921;-68
2021/10/21 05:18:19;;;;;;;30.02;21.45;;;;;;;8.76;78.17;100086.25;1810346;79;22812;-69
2021/10/21 05:20:46;;;;;;;25.30;20.57;;;;;;;8.78;78.18;100085.66;1754790;81;20906;-69
2021/10/21 05:23:12;;;;;;;23.60;19.87;;;;;;;8.78;78.19;100086.52;1770115;80;20972;-68
2021/10/21 05:25:39;;;;;;;24.12;20.40;;;;;;;8.82;78.15;100077.90;1803290;79;20992;-69
2021/10/21 05:28:08;;;;;;;25.05;20.75;;;;;;;8.85;78.13;100078.97;1788326;80;21422;-68
2021/10/21 05:30:34;;;;;;;24.82;19.73;;;;;;;8.87;78.10;100069.15;1818742;79;22141;-69
2021/10/21 05:33:02;;;;;;;24.50;20.23;;;;;;;8.92;78.03;100071.44;1788229;80;20976;-68
2021/10/21 05:35:29;;;;;;;25.30;20.60;;;;;;;8.94;77.98;100064.25;1787460;79;21484;-69
2021/10/21 05:37:56;;;;;;;24.92;20.35;;;;;;;8.98;77.91;100068.34;1785082;80;21000;-69
2021/10/21 05:40:24;;;;;;;30.68;20.40;;;;;;;9.02;77.83;100075.88;1784306;80;21442;-69
2021/10/21 05:42:50;;;;;;;24.57;20.02;;;;;;;9.06;77.71;100068.56;1729156;81;22911;-69
2021/10/21 05:45:17;;;;;;;26.30;21.48;;;;;;;9.08;77.64;100072.78;1776779;80;21433;-69
2021/10/21 05:47:44;;;;;;;26.35;21.02;;;;;;;9.12;77.54;100067.61;1770054;81;20999;-69
2021/10/21 05:50:11;;;;;;;28.92;20.02;;;;;;;9.15;77.37;100070.48;1773674;80;20980;-69
2021/10/21 05:52:37;;;;;;;26.35;19.37;;;;;;;9.18;77.28;100071.09;1782070;79;21078;-70
2021/10/21 05:55:06;;;;;;;25.57;20.00;;;;;;;9.24;77.17;100083.41;1777523;79;22204;-67
2021/10/21 05:57:32;;;;;;;26.45;20.88;;;;;;;9.28;77.00;100071.69;1780054;79;20957;-69
2021/10/21 05:59:59;;;;;;;28.50;20.27;;;;;;;9.31;76.85;100068.33;1779984;79;21095;-67
2021/10/21 06:02:25;;;;;;;25.20;19.50;;;;;;;9.35;76.69;100071.55;1802285;79;20992;-67
2021/10/21 06:04:51;;;;;;;23.95;19.80;;;;;;;9.39;76.50;100076.95;1791762;79;21462;-65
2021/10/21 06:07:18;;;;;;;25.97;20.40;;;;;;;9.45;76.35;100083.88;1782029;79;22815;-67
2021/10/21 06:09:45;;;;;;;23.92;19.48;;;;;;;9.51;76.15;100080.41;1786257;80;21118;-67
2021/10/21 06:12:13;;;;;;;24.00;18.73;;;;;;;9.56;75.90;100069.03;1778986;79;20941;-67
2021/10/21 06:14:39;;;;;;;25.92;19.05;;;;;;;9.61;75.64;100078.70;1781456;79;20988;-67
2021/10/21 06:17:06;;;;;;;25.50;18.85;;;;;;;9.66;75.39;100072.60;1771628;80;21000;-68
2021/10/21 06:19:32;;;;;;;23.83;19.20;;;;;;;9.69;75.14;100074.50;1779959;79;22200;-68
2021/10/21 06:22:08;;;;;;;22.62;18.45;;;;;;;9.73;74.98;100068.48;1784175;79;21008;-68
2021/10/21 06:24:27;;;;;;;21.37;17.67;;;;;;;9.79;74.76;100077.72;1759783;79;21054;-68
2021/10/21 06:26:54;;;;;;;23.27;18.35;;;;;;;9.85;74.49;100078.06;1790120;79;20958;-69
2021/10/21 06:29:20;;;;;;;21.60;17.85;;;;;;;9.91;74.36;100081.98;1763912;80;21048;-67
2021/10/21 06:31:49;;;;;;;23.57;18.57;;;;;;;9.97;74.04;100074.91;1757587;80;21830;-71
2021/10/21 06:34:17;;;;;;;22.17;18.23;;;;;;;10.04;73.75;100084.00;1759938;80;21052;-71
2021/10/21 06:36:43;;;;;;;22.25;17.02;;;;;;;10.11;73.58;100071.13;1773452;81;21001;-70
2021/10/21 06:39:10;;;;;;;22.45;17.57;;;;;;;10.19;73.36;100078.77;1774031;81;20985;-71
2021/10/21 06:41:37;;;;;;;21.57;17.67;;;;;;;10.28;72.99;100061.37;1781428;80;21107;-70
2021/10/21 06:44:05;;;;;;;20.08;17.92;;;;;;;10.37;72.65;100061.09;1782460;80;21750;-70
2021/10/21 06:46:34;;;;;;;20.65;16.65;;;;;;;10.44;72.48;100063.58;1755536;80;20989;-71
2021/10/21 06:49:00;;;;;;;19.35;16.32;;;;;;;10.52;72.11;100062.46;1759093;81;21005;-69
2021/10/21 06:51:27;;;;;;;18.67;16.37;;;;;;;10.57;71.90;100062.41;1759145;81;21052;-70
2021/10/21 06:53:53;;;;;;;20.25;16.57;;;;;;;10.64;71.79;100061.41;1759354;81;20996;-70
2021/10/21 06:56:20;;;;;;;20.70;16.57;;;;;;;10.68;71.32;100063.30;1759380;81;22221;-70
2021/10/21 06:58:47;;;;;;;18.45;15.58;;;;;;;10.72;71.23;100061.61;1759168;81;20957;-70
2021/10/21 07:01:13;;;;;;;19.82;15.63;;;;;;;10.78;71.06;100058.91;1759139;81;21414;-69
2021/10/21 07:03:40;;;;;;;20.80;15.58;;;;;;;10.83;70.67;100060.20;1759047;81;20996;-70
2021/10/21 07:06:06;;;;;;;19.23;16.15;;;;;;;10.91;70.48;100049.47;1759710;81;20957;-70
2021/10/21 07:08:33;;;;;;;19.50;15.55;;;;;;;10.98;70.30;100055.88;1760339;81;22190;-71
2021/10/21 07:11:01;;;;;;;16.97;14.30;;;;;;;11.08;69.93;100057.59;1760960;81;21073;-69
2021/10/21 07:13:28;;;;;;;17.07;13.98;;;;;;;11.18;69.45;100045.73;1780855;80;21028;-69
2021/10/21 07:15:54;;;;;;;21.10;15.45;;;;;;;11.28;69.17;100055.03;1781148;80;20966;-69
2021/10/21 07:18:23;;;;;;;17.95;14.33;;;;;;;11.36;68.61;100048.09;1756801;80;21577;-69
2021/10/21 07:20:51;;;;;;;19.07;14.43;;;;;;;11.47;68.44;100040.05;1780869;80;21852;-68
2021/10/21 07:23:19;;;;;;;20.40;14.00;;;;;;;11.59;68.34;100037.31;1781300;80;21111;-69
2021/10/21 07:25:46;;;;;;;14.78;12.45;;;;;;;11.74;67.77;100034.61;1784808;80;20992;-69
2021/10/21 07:28:13;;;;;;;17.65;13.05;;;;;;;11.87;67.47;100043.63;1785356;80;20936;-67
2021/10/21 07:30:40;;;;;;;15.68;12.78;;;;;;;11.95;66.54;100035.34;1781631;80;21095;-69
2021/10/21 07:33:06;;;;;;;15.53;12.43;;;;;;;12.04;66.12;100035.84;1775998;80;21800;-68
2021/10/21 07:35:33;;;;;;;16.90;12.23;;;;;;;12.13;65.78;100038.62;1746857;81;21380;-68
2021/10/21 07:38:01;;;;;;;16.17;12.30;;;;;;;12.16;65.27;100031.72;1784282;80;20984;-68
2021/10/21 07:40:27;;;;;;;15.18;11.57;;;;;;;12.15;65.09;100031.38;1785603;80;21079;-68
2021/10/21 07:42:56;;;;;;;14.63;12.07;;;;;;;12.15;64.96;100026.08;1785340;80;21000;-69
2021/10/21 07:45:22;;;;;;;13.70;10.85;;;;;;;12.17;64.64;100018.37;1785665;80;22139;-68
2021/10/21 07:47:49;;;;;;;13.00;10.38;;;;;;;12.23;64.46;100015.62;1757746;81;21028;-69
2021/10/21 07:50:17;;;;;;;14.43;11.05;;;;;;;12.28;64.22;100018.70;1758140;81;20996;-64
2021/10/21 07:52:46;;;;;;;13.58;10.93;;;;;;;12.39;64.29;100047.67;1757694;81;20977;-68
2021/10/21 07:55:13;;;;;;;13.93;10.70;;;;;;;12.50;63.65;100006.45;1753017;81;20992;-68
2021/10/21 07:57:40;;;;;;;14.20;10.40;;;;;;;12.57;63.25;100004.08;1756226;81;22871;-68
2021/10/21 08:00:11;;;;;;;11.73;10.32;;;;;;;12.64;63.08;99999.85;1755585;81;21043;-69
2021/10/21 08:02:42;;;;;;;14.47;10.18;;;;;;;12.73;62.66;99996.83;1780142;79;21035;-69
2021/10/21 08:05:10;;;;;;;12.40;9.93;;;;;;;12.77;61.81;100000.39;1805548;79;21008;-69
2021/10/21 08:07:47;;;;;;;13.58;9.58;;;;;;;12.84;61.78;99996.67;1795301;79;21060;-68
2021/10/21 08:10:17;;;;;;;11.73;9.65;;;;;;;12.89;61.29;99995.23;1767934;81;21074;-68
2021/10/21 08:12:46;;;;;;;12.23;9.53;;;;;;;12.95;61.12;99981.91;1767993;81;21083;-69
2021/10/21 08:15:12;;;;;;;10.35;8.70;;;;;;;13.00;60.88;99984.94;1768305;81;21047;-69
2021/10/21 08:17:39;;;;;;;14.58;9.48;;;;;;;13.04;60.74;99978.37;1768042;81;21457;-70
2021/10/21 08:20:16;;;;;;;10.63;8.78;;;;;;;13.11;60.59;99974.12;1767904;81;21023;-69
2021/10/21 08:22:45;;;;;;;11.68;8.85;;;;;;;13.21;60.70;99970.13;1768050;81;22242;-69
2021/10/21 08:25:13;;;;;;;11.93;8.93;;;;;;;13.30;60.04;99963.94;1726036;82;21509;-68
2021/10/21 08:27:41;;;;;;;14.58;8.75;;;;;;;13.33;59.79;99944.25;1737973;82;21058;-69
2021/10/21 08:30:08;;;;;;;12.23;8.08;;;;;;;13.40;59.51;99957.24;1724081;81;21093;-67
2021/10/21 08:32:36;;;;;;;9.43;8.10;;;;;;;13.50;58.94;99935.45;1734074;82;21083;-69
2021/10/21 08:35:06;;;;;;;10.58;8.13;;;;;;;13.52;58.70;99936.66;1749964;82;21772;-68
2021/10/21 08:37:37;;;;;;;10.38;7.53;;;;;;;13.55;58.84;99937.17;1728374;82;21076;-68
2021/10/21 08:40:04;;;;;;;10.20;7.67;;;;;;;13.64;58.81;99937.59;1719681;83;21023;-68
2021/10/21 08:42:30;;;;;;;22.17;8.88;;;;;;;13.74;58.19;99946.31;1735456;82;21055;-69
2021/10/21 08:44:57;;;;;;;8.85;7.28;;;;;;;13.83;57.56;99945.06;1734354;82;21031;-69
2021/10/21 08:47:27;;;;;;;8.90;7.45;;;;;;;13.90;57.31;99938.98;1743581;81;21805;-69
2021/10/21 08:49:54;;;;;;;9.95;7.25;;;;;;;13.96;56.85;99945.48;1735902;82;21094;-69
2021/10/21 08:52:22;;;;;;;10.15;7.90;;;;;;;13.99;56.42;99937.20;1735976;82;21091;-68
2021/10/21 08:54:50;;;;;;;11.90;7.40;;;;;;;14.04;56.54;99938.42;1735776;82;21098;-68
2021/10/21 08:57:16;;;;;;;13.58;7.37;;;;;;;14.13;55.92;99931.84;1718984;82;21035;-70
2021/10/21 08:59:47;;;;;;;9.23;6.47;;;;;;;14.18;55.61;99926.39;1735959;81;22682;-68
2021/10/21 09:02:20;;;;;;;9.98;7.03;;;;;;;14.23;55.43;99929.42;1735871;82;21099;-68
2021/10/21 09:04:59;;;;;;;10.63;7.22;;;;;;;14.30;55.26;99937.11;1735968;82;21059;-68
2021/10/21 09:10:11;;;;;;;8.15;7.05;;;;;;;14.38;54.97;99920.39;1694565;84;21042;-68
2021/10/21 09:12:48;;;;;;;10.93;6.90;;;;;;;14.46;55.12;99916.96;1708244;83;21686;-68
2021/10/21 09:15:17;;;;;;;10.08;6.60;;;;;;;14.50;54.49;99920.48;1708547;83;20979;-68
2021/10/21 09:17:45;;;;;;;9.20;6.83;;;;;;;14.55;54.46;99917.34;1709019;82;21047;-69
2021/10/21 09:20:38;;;;;;;10.68;7.00;;;;;;;14.63;54.59;99916.55;1737911;82;21434;-69
2021/10/21 09:23:11;;;;;;;8.53;6.77;;;;;;;14.70;54.06;99908.29;1737983;82;21051;-68
2021/10/21 09:25:41;;;;;;;8.05;6.72;;;;;;;14.70;54.06;99908.29;1754860;81;21798;-68
2021/10/21 09:28:24;;;;;;;8.38;6.45;;;;;;;14.74;53.42;99906.47;1758771;81;21031;-69
2021/10/21 09:31:08;;;;;;;8.03;6.20;;;;;;;14.81;53.35;99897.36;1759315;81;21015;-69
2021/10/21 09:33:56;;;;;;;;;;;;;;;14.94;52.92;99891.58;1762694;81;21070;-69
2021/10/21 09:36:23;;;;;;;9.60;7.03;;;;;;;15.09;52.79;99885.98;1722503;83;20205;-70
2021/10/21 09:38:55;;;;;;;7.37;6.15;;;;;;;15.24;52.16;99880.34;1745958;82;22189;-69
2021/10/21 09:41:32;;;;;;;6.22;4.58;;;;;;;15.41;51.66;99889.19;1746414;82;21079;-69
2021/10/21 09:43:58;;;;;;;10.68;6.20;;;;;;;15.63;51.09;99874.42;1741484;81;21315;-68
2021/10/21 09:46:41;;;;;;;11.28;6.37;;;;;;;15.86;50.48;99868.77;1714692;82;21040;-70
2021/10/21 09:49:29;;;;;;;7.33;6.03;;;;;;;16.07;49.28;99864.24;1731170;81;21071;-69
2021/10/21 09:51:54;;;;;;;9.83;6.10;;;;;;;16.23;48.83;99873.55;1732485;82;22155;-68
2021/10/21 09:54:20;;;;;;;8.73;5.53;;;;;;;16.31;48.24;99866.03;1747470;82;21056;-67
2021/10/21 09:57:03;;;;;;;6.72;5.78;;;;;;;16.33;48.18;99863.19;1747582;82;21107;-68
2021/10/21 09:59:36;;;;;;;10.35;5.45;;;;;;;16.34;47.96;99862.19;1747206;82;21031;-68
2021/10/21 10:02:21;;;;;;;7.78;5.80;;;;;;;16.34;47.75;99852.36;1747985;82;21032;-69
2021/10/21 10:04:50;;;;;;;6.75;5.45;;;;;;;16.37;47.96;99856.00;1747534;82;21843;-68
2021/10/21 10:07:19;;;;;;;8.33;5.72;;;;;;;16.43;47.83;99849.99;1747726;82;21216;-68
2021/10/21 10:09:47;;;;;;;8.00;5.50;;;;;;;16.43;47.65;99834.00;1747470;82;21087;-69
2021/10/21 10:12:14;;;;;;;9.45;5.78;;;;;;;16.40;48.09;99853.48;1747819;82;21498;-68
2021/10/21 10:14:45;;;;;;;8.53;5.95;;;;;;;16.40;47.84;99836.16;1747514;82;21036;-69
2021/10/21 10:17:17;;;;;;;8.65;6.15;;;;;;;16.42;47.96;99824.84;1722038;82;22252;-69
2021/10/21 10:19:46;;;;;;;9.53;5.87;;;;;;;16.46;47.76;99811.48;1747523;82;21047;-70
2021/10/21 10:22:17;;;;;;;8.43;5.55;;;;;;;16.50;47.55;99819.45;1747410;82;21003;-69
2021/10/21 10:24:43;;;;;;;9.18;6.12;;;;;;;16.56;47.47;99806.77;1758572;80;21000;-69
2021/10/21 10:27:23;;;;;;;7.15;6.03;;;;;;;16.67;47.60;99798.38;1784129;79;20996;-67
2021/10/21 10:29:50;;;;;;;11.95;5.80;;;;;;;16.88;47.25;99786.61;1783429;80;22402;-68
2021/10/21 10:32:39;;;;;;;9.08;6.10;;;;;;;17.08;46.14;99772.33;1784006;80;21083;-69
2021/10/21 10:35:11;;;;;;;12.05;5.67;;;;;;;17.20;46.40;99783.41;1784076;80;21640;-69
2021/10/21 10:37:46;;;;;;;10.32;5.62;;;;;;;17.32;45.83;99781.13;1784170;80;21505;-68
2021/10/21 10:40:14;;;;;;;7.55;5.30;;;;;;;17.40;45.30;99775.73;1784100;79;21043;-68
2021/10/21 10:42:47;;;;;;;6.15;5.22;;;;;;;17.47;45.65;99782.02;1784158;80;21806;-69
2021/10/21 10:45:15;;;;;;;13.45;5.47;;;;;;;17.48;45.17;99783.67;1782032;80;21074;-69
2021/10/21 10:47:49;;;;;;;9.80;5.10;;;;;;;17.46;45.34;99781.67;1729081;80;21024;-68
2021/10/21 10:50:29;;;;;;;9.38;5.50;;;;;;;17.49;45.54;99774.66;1747080;81;21044;-69
2021/10/21 10:53:06;;;;;;;7.92;5.40;;;;;;;17.51;45.11;99769.12;1764951;81;21091;-69
2021/10/21 10:55:47;;;;;;;9.58;4.90;;;;;;;17.50;44.74;99791.50;1764068;81;22740;-69
2021/10/21 10:58:16;;;;;;;8.48;4.80;;;;;;;17.46;45.06;99777.66;1764769;79;21101;-69
2021/10/21 11:00:51;;;;;;;6.53;5.10;;;;;;;17.35;45.16;99758.08;1766735;80;21609;-68
2021/10/21 11:03:41;;;;;;;10.93;5.90;;;;;;;17.24;45.71;99750.00;1764200;79;21058;-68
2021/10/21 11:06:16;;;;;;;11.12;5.08;;;;;;;17.17;45.92;99751.21;1764058;81;21027;-69
2021/10/21 11:09:06;;;;;;;7.72;5.08;;;;;;;17.16;45.96;99768.23;1765741;81;21762;-69
2021/10/21 11:11:55;;;;;;;10.28;5.78;;;;;;;17.12;46.29;99744.27;1766005;81;20999;-68
2021/10/21 11:14:37;;;;;;;7.67;5.40;;;;;;;17.11;46.49;99743.94;1766385;81;21462;-67
2021/10/21 11:17:06;;;;;;;10.18;5.70;;;;;;;17.15;46.79;99741.23;1766369;81;21043;-67
2021/10/21 11:19:45;;;;;;;8.35;5.65;;;;;;;17.16;46.60;99727.37;1766319;81;20992;-69
2021/10/21 11:22:25;;;;;;;11.73;6.10;;;;;;;17.19;46.72;99722.20;1763733;81;21063;-69
2021/10/21 11:24:57;;;;;;;10.55;5.83;;;;;;;17.19;46.54;99741.72;1760877;81;21004;-68
2021/10/21 11:27:31;;;;;;;10.90;5.85;;;;;;;17.21;46.34;99722.34;1734035;81;21007;-67
2021/10/21 11:30:09;;;;;;;12.60;5.37;;;;;;;17.20;46.41;99713.19;1759828;81;21351;-68
2021/10/21 11:32:38;;;;;;;8.85;5.55;;;;;;;17.16;46.56;99707.36;1726564;81;20968;-67
2021/10/21 11:35:22;;;;;;;8.73;5.15;;;;;;;17.13;46.71;99701.89;1759806;81;21860;-68
2021/10/21 11:37:51;;;;;;;7.00;5.47;;;;;;;17.12;46.78;99703.41;1759854;81;21020;-69
2021/10/21 11:40:35;;;;;;;8.55;6.00;;;;;;;17.06;47.17;99698.28;1759936;81;21582;-67
2021/10/21 11:43:06;;;;;;;12.43;6.10;;;;;;;17.03;47.20;99687.97;1759895;81;21478;-68
2021/10/21 11:45:37;;;;;;;12.58;5.80;;;;;;;17.05;47.51;99691.79;1759650;81;20995;-68
2021/10/21 11:48:07;;;;;;;7.47;5.30;;;;;;;17.12;47.59;99678.06;1759918;81;22591;-68